KAXS/AXS METAR and TAF weather

Enter ICAO airport designator
Station Type Date Time Source
KAXS METAR 2021/05/17 21:35 UTC NOAA

KAXS 172135Z AUTO 09007G15KT 10SM CLR 29/13 A2985 RMK AO2 T02890134


Station Type Date Time Source
KAXS Decoded METAR 2021/05/17 21:35 UTC NOAA

Altus, Altus/Quartz Mountain Regional Airport, OK, United States (KAXS) 34-41-55N 099-20-17W
May 17, 2021 - 05:35 PM EDT / 2021.05.17 2135 UTC
Wind: from the E (090 degrees) at 8 MPH (7 KT) gusting to 17 MPH (15 KT):0
Visibility: 10 mile(s):0
Sky conditions: clear
Temperature: 84.0 F (28.9 C)
Dew Point: 56.1 F (13.4 C)
Relative Humidity: 38%
Pressure (altimeter): 29.85 in. Hg (1010 hPa)
ob: KAXS 172135Z AUTO 09007G15KT 10SM CLR 29/13 A2985 RMK AO2 T02890134
cycle: 21

Station Type Date Time Source
KAXS TAF UTC NOAA

Error!

Example: see airport list